Time;durP1;ratioP1;P1;durP2;ratioP2;P2;SDS_P1;SDS_P2;PMS_P1;PMS_P2;Temp;Humidity;BMP_temperature;BMP_pressure;BME280_temperature;BME280_humidity;BME280_pressure;Samples;Min_cycle;Max_cycle;Signal;HPM_P1;HPM_P2
2022/04/22 00:01:07;;;;;;;5.33;4.20;;;;;;;;;;4991642;28;20181;-57
2022/04/22 00:03:33;;;;;;;4.73;3.93;;;;;;;;;;4995444;28;20197;-57
2022/04/22 00:06:00;;;;;;;6.67;4.33;;;;;;;;;;4994355;28;20209;-57
2022/04/22 00:08:26;;;;;;;5.67;3.80;;;;;;;;;;4990539;28;20677;-57
2022/04/22 00:13:37;;;;;;;5.30;4.20;;;;;;;;;;4998515;28;20227;-56
2022/04/22 00:16:03;;;;;;;4.67;3.97;;;;;;;;;;4994811;28;20675;-57
2022/04/22 00:18:29;;;;;;;7.60;3.57;;;;;;;;;;4992326;28;20227;-56
2022/04/22 00:20:55;;;;;;;4.70;4.07;;;;;;;;;;4993463;28;20542;-57
2022/04/22 00:23:21;;;;;;;6.60;4.27;;;;;;;;;;4998459;28;20687;-57
2022/04/22 00:25:47;;;;;;;4.87;3.93;;;;;;;;;;5003647;28;20201;-57
2022/04/22 00:28:13;;;;;;;5.00;4.27;;;;;;;;;;5002030;28;20596;-57
2022/04/22 00:30:39;;;;;;;4.77;4.27;;;;;;;;;;4992245;28;20264;-56
2022/04/22 00:33:06;;;;;;;5.00;4.40;;;;;;;;;;4988708;28;20196;-57
2022/04/22 00:35:32;;;;;;;4.87;3.80;;;;;;;;;;4992482;28;20201;-57
2022/04/22 00:37:59;;;;;;;4.43;4.03;;;;;;;;;;4999983;28;20209;-57
2022/04/22 00:40:25;;;;;;;5.43;4.17;;;;;;;;;;4989749;28;20223;-57
2022/04/22 00:42:51;;;;;;;7.60;3.97;;;;;;;;;;4993038;28;20689;-57
2022/04/22 00:45:19;;;;;;;6.33;4.30;;;;;;;;;;5000264;28;20486;-57
2022/04/22 00:47:45;;;;;;;6.83;4.60;;;;;;;;;;4998160;28;20200;-57
2022/04/22 00:50:11;;;;;;;5.97;4.83;;;;;;;;;;4997458;28;20223;-57
2022/04/22 00:52:37;;;;;;;6.30;4.30;;;;;;;;;;5003118;28;20677;-57
2022/04/22 00:55:03;;;;;;;5.20;4.70;;;;;;;;;;5005167;28;20193;-57
2022/04/22 00:57:29;;;;;;;7.60;4.67;;;;;;;;;;4998342;28;21126;-57
2022/04/22 00:59:55;;;;;;;7.13;4.53;;;;;;;;;;4999014;28;20284;-57
2022/04/22 01:02:21;;;;;;;6.13;4.60;;;;;;;;;;4997693;28;20243;-57
2022/04/22 01:10:16;;;;;;;6.13;4.93;;;;;;;;;;4999650;28;20698;-57
2022/04/22 01:12:42;;;;;;;5.33;4.80;;;;;;;;;;5002928;28;20193;-56
2022/04/22 01:15:08;;;;;;;5.83;5.23;;;;;;;;;;5001543;28;20832;-57
2022/04/22 01:17:34;;;;;;;6.47;4.80;;;;;;;;;;5005340;28;20275;-56
2022/04/22 01:20:00;;;;;;;5.77;4.97;;;;;;;;;;4997568;28;20599;-56
2022/04/22 01:22:27;;;;;;;5.23;4.73;;;;;;;;;;5002937;28;20245;-57
2022/04/22 01:24:56;;;;;;;7.97;5.10;;;;;;;;;;4998837;28;20193;-56
2022/04/22 01:27:22;;;;;;;5.73;5.13;;;;;;;;;;5003890;28;20185;-57
2022/04/22 01:29:48;;;;;;;7.67;5.10;;;;;;;;;;4994627;28;20204;-56
2022/04/22 01:32:14;;;;;;;7.03;5.27;;;;;;;;;;5002022;28;20575;-56
2022/04/22 01:34:42;;;;;;;6.30;5.07;;;;;;;;;;4999150;28;20578;-57
2022/04/22 01:37:08;;;;;;;7.03;5.40;;;;;;;;;;4995905;28;20221;-57
2022/04/22 01:39:34;;;;;;;8.37;5.83;;;;;;;;;;4997215;28;20562;-57
2022/04/22 01:42:00;;;;;;;6.40;5.83;;;;;;;;;;4990345;28;20200;-55
2022/04/22 01:44:26;;;;;;;5.93;5.40;;;;;;;;;;5002914;28;20540;-56
2022/04/22 01:46:52;;;;;;;7.40;5.67;;;;;;;;;;4993237;28;20201;-57
2022/04/22 01:49:18;;;;;;;6.50;5.90;;;;;;;;;;4999957;28;20577;-57
2022/04/22 01:51:44;;;;;;;8.77;5.70;;;;;;;;;;4992608;28;20188;-56
2022/04/22 01:54:10;;;;;;;6.33;5.23;;;;;;;;;;4996468;28;20288;-56
2022/04/22 01:56:36;;;;;;;6.10;5.50;;;;;;;;;;5001134;28;20214;-56
2022/04/22 01:59:02;;;;;;;6.63;5.50;;;;;;;;;;5001566;28;20208;-56
2022/04/22 02:01:28;;;;;;;8.40;5.77;;;;;;;;;;4996113;28;20216;-57
2022/04/22 02:03:54;;;;;;;6.13;5.53;;;;;;;;;;4992534;28;20205;-57
2022/04/22 02:06:20;;;;;;;6.97;6.07;;;;;;;;;;4992236;28;20937;-57
2022/04/22 02:08:46;;;;;;;7.47;5.80;;;;;;;;;;4999369;28;20193;-57
2022/04/22 02:11:13;;;;;;;6.10;5.50;;;;;;;;;;4998429;28;20193;-56
2022/04/22 02:13:38;;;;;;;6.47;5.87;;;;;;;;;;5002785;28;20189;-57
2022/04/22 02:16:05;;;;;;;6.90;5.97;;;;;;;;;;5007420;28;20193;-57
2022/04/22 02:18:34;;;;;;;6.87;5.97;;;;;;;;;;4998256;28;20216;-56
2022/04/22 02:21:00;;;;;;;6.23;5.57;;;;;;;;;;5005910;28;20193;-57
2022/04/22 02:23:26;;;;;;;6.93;6.23;;;;;;;;;;5003308;28;20465;-57
2022/04/22 02:25:52;;;;;;;7.20;6.13;;;;;;;;;;5005663;28;20312;-57
2022/04/22 02:28:33;;;;;;;6.47;5.80;;;;;;;;;;4993215;28;20631;-57
2022/04/22 02:31:06;;;;;;;7.60;5.53;;;;;;;;;;5005868;28;20287;-57
2022/04/22 02:33:32;;;;;;;6.67;5.60;;;;;;;;;;5003661;28;20211;-57
2022/04/22 02:35:59;;;;;;;6.23;5.60;;;;;;;;;;5004891;28;22655;-57
2022/04/22 02:38:25;;;;;;;7.00;5.87;;;;;;;;;;4997586;28;20248;-57
2022/04/22 02:46:21;;;;;;;6.23;5.70;;;;;;;;;;5000176;28;20236;-57
2022/04/22 02:48:46;;;;;;;6.93;6.23;;;;;;;;;;4997538;28;20594;-57
2022/04/22 02:51:12;;;;;;;7.50;5.63;;;;;;;;;;5007787;28;20185;-56
2022/04/22 02:53:39;;;;;;;6.63;5.93;;;;;;;;;;5000289;28;20251;-57
2022/04/22 02:56:05;;;;;;;6.30;5.80;;;;;;;;;;5002707;28;20698;-57
2022/04/22 02:58:31;;;;;;;6.47;5.83;;;;;;;;;;5002738;28;20304;-56
2022/04/22 03:00:57;;;;;;;7.23;5.97;;;;;;;;;;5001213;28;20194;-57
2022/04/22 03:03:23;;;;;;;6.27;5.70;;;;;;;;;;4997636;28;20603;-56
2022/04/22 03:05:49;;;;;;;6.83;6.20;;;;;;;;;;5000591;28;20197;-56
2022/04/22 03:08:15;;;;;;;6.80;5.90;;;;;;;;;;5002013;28;20224;-56
2022/04/22 03:10:40;;;;;;;7.00;6.30;;;;;;;;;;5003568;28;20655;-56
2022/04/22 03:13:06;;;;;;;6.73;6.07;;;;;;;;;;5005050;28;20727;-56
2022/04/22 03:15:35;;;;;;;7.10;6.33;;;;;;;;;;5001955;28;20654;-56
2022/04/22 03:18:01;;;;;;;7.87;5.90;;;;;;;;;;5006325;28;20213;-56
2022/04/22 03:20:27;;;;;;;6.20;5.57;;;;;;;;;;5001163;28;20674;-57
2022/04/22 03:22:53;;;;;;;7.67;6.13;;;;;;;;;;5008136;28;20294;-57
2022/04/22 03:25:20;;;;;;;6.93;6.23;;;;;;;;;;5002354;28;20660;-56
2022/04/22 03:27:46;;;;;;;6.73;6.00;;;;;;;;;;5003507;28;20515;-57
2022/04/22 03:30:12;;;;;;;6.90;6.20;;;;;;;;;;4998656;28;20607;-56
2022/04/22 03:32:38;;;;;;;6.57;5.97;;;;;;;;;;5007687;28;20197;-56
2022/04/22 03:35:05;;;;;;;7.50;6.77;;;;;;;;;;5001687;28;20267;-56
2022/04/22 03:37:31;;;;;;;7.37;6.67;;;;;;;;;;5000043;28;20228;-56
2022/04/22 03:39:57;;;;;;;8.33;6.63;;;;;;;;;;5005017;28;20751;-56
2022/04/22 03:42:23;;;;;;;7.97;6.83;;;;;;;;;;5004268;28;20204;-57
2022/04/22 03:44:49;;;;;;;7.10;6.40;;;;;;;;;;5000381;28;20192;-56
2022/04/22 03:47:15;;;;;;;7.60;6.63;;;;;;;;;;5004771;28;20193;-56
2022/04/22 03:49:41;;;;;;;7.60;6.80;;;;;;;;;;5003468;28;20205;-57
2022/04/22 03:52:08;;;;;;;7.43;6.70;;;;;;;;;;5003258;28;20689;-57
2022/04/22 03:54:34;;;;;;;8.87;6.87;;;;;;;;;;5003693;28;20231;-56
2022/04/22 03:59:44;;;;;;;8.03;6.97;;;;;;;;;;5005031;28;20264;-55
2022/04/22 04:02:10;;;;;;;8.23;7.00;;;;;;;;;;5000947;28;20691;-56
2022/04/22 04:04:36;;;;;;;8.13;7.33;;;;;;;;;;4996733;28;21911;-56
2022/04/22 04:07:02;;;;;;;7.83;7.13;;;;;;;;;;5003578;28;20685;-56
2022/04/22 04:17:42;;;;;;;7.80;7.00;;;;;;;;;;4993409;28;20243;-56
2022/04/22 04:25:40;;;;;;;8.50;7.60;;;;;;;;;;5000782;28;20208;-57
2022/04/22 04:28:09;;;;;;;8.17;7.37;;;;;;;;;;5002265;28;20209;-57
2022/04/22 04:30:36;;;;;;;8.60;7.70;;;;;;;;;;4994172;28;20904;-57
2022/04/22 04:33:02;;;;;;;9.83;7.73;;;;;;;;;;4998861;28;20931;-56
2022/04/22 04:35:28;;;;;;;7.97;7.10;;;;;;;;;;4994744;28;20276;-57
2022/04/22 04:37:54;;;;;;;8.63;7.73;;;;;;;;;;5000051;28;20681;-56
2022/04/22 04:40:20;;;;;;;11.07;7.60;;;;;;;;;;5003484;28;20197;-57
2022/04/22 04:42:46;;;;;;;10.57;8.07;;;;;;;;;;4996003;28;20193;-56
2022/04/22 04:45:12;;;;;;;10.50;8.43;;;;;;;;;;4991250;28;20655;-57
2022/04/22 04:47:41;;;;;;;9.30;8.30;;;;;;;;;;4990925;28;20192;-56
2022/04/22 04:50:08;;;;;;;9.37;7.67;;;;;;;;;;4991833;28;20566;-56
2022/04/22 04:52:34;;;;;;;8.03;6.97;;;;;;;;;;4996496;28;20203;-57
2022/04/22 04:55:00;;;;;;;9.33;8.37;;;;;;;;;;4993778;28;20246;-56
2022/04/22 04:57:26;;;;;;;12.07;8.90;;;;;;;;;;4991320;28;20561;-56
2022/04/22 04:59:52;;;;;;;11.43;8.50;;;;;;;;;;4997794;28;20236;-57
2022/04/22 05:02:18;;;;;;;10.83;8.37;;;;;;;;;;4999418;28;20188;-56
2022/04/22 05:04:45;;;;;;;9.23;8.20;;;;;;;;;;4995031;28;20189;-57
2022/04/22 05:07:11;;;;;;;9.73;7.87;;;;;;;;;;4996572;28;20225;-57
2022/04/22 05:09:37;;;;;;;12.37;9.10;;;;;;;;;;4982103;28;20209;-56
2022/04/22 05:12:03;;;;;;;9.07;7.97;;;;;;;;;;5000887;28;20200;-57
2022/04/22 05:14:29;;;;;;;10.23;8.80;;;;;;;;;;4998081;28;20224;-57
2022/04/22 05:16:55;;;;;;;10.73;8.73;;;;;;;;;;4999848;28;20209;-56
2022/04/22 05:19:22;;;;;;;10.20;7.70;;;;;;;;;;4998188;28;20199;-56
2022/04/22 05:21:49;;;;;;;11.30;9.20;;;;;;;;;;4994716;28;20997;-56
2022/04/22 05:24:15;;;;;;;10.47;8.90;;;;;;;;;;4998914;28;20188;-57
2022/04/22 05:26:41;;;;;;;11.33;9.07;;;;;;;;;;4999212;28;20198;-56
2022/04/22 05:32:36;;;;;;;10.23;8.73;;;;;;;;;;4987840;28;20659;-56
2022/04/22 05:34:37;;;;;;;14.13;9.53;;;;;;;;;;4984533;28;20722;-56
2022/04/22 05:37:03;;;;;;;11.77;9.43;;;;;;;;;;4993063;28;20225;-56
2022/04/22 05:39:29;;;;;;;10.70;9.47;;;;;;;;;;4995457;28;20190;-56
2022/04/22 05:41:55;;;;;;;13.03;9.43;;;;;;;;;;5003736;28;20769;-56
2022/04/22 05:44:21;;;;;;;9.83;8.80;;;;;;;;;;4996236;28;21441;-55
2022/04/22 05:46:48;;;;;;;11.40;9.30;;;;;;;;;;4998217;28;20202;-56
2022/04/22 05:49:14;;;;;;;13.83;9.53;;;;;;;;;;5001698;28;20193;-57
2022/04/22 05:51:40;;;;;;;12.20;9.47;;;;;;;;;;5007618;28;20650;-57
2022/04/22 05:54:06;;;;;;;12.70;9.87;;;;;;;;;;4989399;28;20711;-55
2022/04/22 05:56:31;;;;;;;12.03;10.03;;;;;;;;;;4993471;28;20658;-56
2022/04/22 05:58:59;;;;;;;11.33;9.90;;;;;;;;;;4994934;28;21328;-56
2022/04/22 06:01:25;;;;;;;13.00;9.73;;;;;;;;;;4998703;28;20205;-56
2022/04/22 06:03:51;;;;;;;10.90;9.53;;;;;;;;;;4984614;28;20205;-56
2022/04/22 06:06:16;;;;;;;10.93;9.40;;;;;;;;;;4978023;28;20197;-56
2022/04/22 06:11:27;;;;;;;11.67;10.10;;;;;;;;;;4997533;28;21047;-57
2022/04/22 06:13:53;;;;;;;12.97;10.80;;;;;;;;;;5007183;28;20186;-57
2022/04/22 06:16:19;;;;;;;12.97;10.20;;;;;;;;;;4982785;28;20230;-56
2022/04/22 06:18:45;;;;;;;13.10;11.07;;;;;;;;;;5001284;28;20225;-56
2022/04/22 06:21:11;;;;;;;12.20;10.90;;;;;;;;;;5001360;28;20606;-56
2022/04/22 06:23:37;;;;;;;15.97;10.53;;;;;;;;;;4999976;28;20616;-56
2022/04/22 06:26:03;;;;;;;12.50;10.73;;;;;;;;;;5006460;28;20276;-57
2022/04/22 06:28:28;;;;;;;11.80;10.37;;;;;;;;;;4998088;28;20773;-57
2022/04/22 06:30:55;;;;;;;16.60;10.73;;;;;;;;;;4978828;28;20336;-56
2022/04/22 06:33:21;;;;;;;14.60;10.77;;;;;;;;;;4992256;28;20201;-56
2022/04/22 06:35:47;;;;;;;13.17;10.80;;;;;;;;;;5001101;28;20192;-56
2022/04/22 06:38:14;;;;;;;12.20;10.90;;;;;;;;;;5004888;28;20236;-57
2022/04/22 06:46:10;;;;;;;13.17;10.00;;;;;;;;;;4996068;28;20745;-57
2022/04/22 06:48:36;;;;;;;15.33;10.27;;;;;;;;;;5001115;28;20198;-57
2022/04/22 06:51:06;;;;;;;12.13;10.17;;;;;;;;;;5001187;28;20194;-57
2022/04/22 06:53:32;;;;;;;14.63;11.33;;;;;;;;;;5001698;28;20204;-57
2022/04/22 06:56:00;;;;;;;12.13;10.20;;;;;;;;;;4992492;28;20668;-57
2022/04/22 06:58:29;;;;;;;16.73;10.67;;;;;;;;;;5001496;28;20606;-56
2022/04/22 07:00:55;;;;;;;13.37;10.07;;;;;;;;;;4996012;28;20590;-57
2022/04/22 07:03:21;;;;;;;12.00;10.37;;;;;;;;;;4999156;28;20236;-57
2022/04/22 07:05:48;;;;;;;13.57;10.63;;;;;;;;;;4994866;28;20197;-56
2022/04/22 07:08:14;;;;;;;11.93;10.07;;;;;;;;;;4981517;28;20221;-56
2022/04/22 07:10:50;;;;;;;11.10;9.90;;;;;;;;;;4988526;28;20501;-57
2022/04/22 07:13:16;;;;;;;10.67;9.57;;;;;;;;;;5003943;28;20184;-57
2022/04/22 07:15:43;;;;;;;11.90;9.67;;;;;;;;;;5005964;28;20193;-57
2022/04/22 07:18:10;;;;;;;12.40;10.23;;;;;;;;;;5004036;28;20782;-56
2022/04/22 07:20:36;;;;;;;13.30;10.33;;;;;;;;;;4999322;28;20763;-56
2022/04/22 07:23:02;;;;;;;11.30;9.27;;;;;;;;;;4993485;28;20936;-57
2022/04/22 07:25:28;;;;;;;11.53;8.57;;;;;;;;;;4997804;28;20673;-57
2022/04/22 07:27:54;;;;;;;11.60;10.40;;;;;;;;;;5008440;28;20211;-56
2022/04/22 07:30:21;;;;;;;10.73;9.20;;;;;;;;;;5006943;28;20359;-55
2022/04/22 07:32:47;;;;;;;10.73;9.20;;;;;;;;;;5005739;28;20237;-56
2022/04/22 07:35:13;;;;;;;9.90;8.90;;;;;;;;;;4995824;28;20193;-57
2022/04/22 07:37:43;;;;;;;10.43;9.33;;;;;;;;;;4994427;28;21802;-56
2022/04/22 07:40:09;;;;;;;11.37;10.17;;;;;;;;;;5002051;28;20193;-56
2022/04/22 07:42:35;;;;;;;10.93;9.83;;;;;;;;;;4998592;28;20249;-56
2022/04/22 07:47:47;;;;;;;11.10;10.00;;;;;;;;;;5001304;28;20196;-56
2022/04/22 07:50:13;;;;;;;10.73;9.23;;;;;;;;;;4999900;28;20197;-57
2022/04/22 07:52:39;;;;;;;12.13;9.40;;;;;;;;;;5003430;28;20664;-56
2022/04/22 07:55:05;;;;;;;10.80;9.70;;;;;;;;;;5004200;28;20197;-56
2022/04/22 07:57:31;;;;;;;10.50;9.47;;;;;;;;;;4998781;28;20306;-56
2022/04/22 07:59:57;;;;;;;10.80;9.00;;;;;;;;;;5000209;28;20189;-56
2022/04/22 08:02:24;;;;;;;11.70;8.90;;;;;;;;;;4998610;28;20181;-56
2022/04/22 08:04:50;;;;;;;10.60;9.33;;;;;;;;;;4988053;28;20217;-57
2022/04/22 08:07:16;;;;;;;12.03;9.57;;;;;;;;;;5001855;28;20209;-57
2022/04/22 08:09:44;;;;;;;10.50;9.13;;;;;;;;;;4996773;28;20189;-57
2022/04/22 08:12:12;;;;;;;10.33;9.33;;;;;;;;;;5004672;28;20659;-56
2022/04/22 08:14:38;;;;;;;10.87;8.57;;;;;;;;;;4999967;28;20276;-57
2022/04/22 08:17:04;;;;;;;10.57;9.33;;;;;;;;;;4999373;28;20653;-56
2022/04/22 08:19:29;;;;;;;11.63;9.43;;;;;;;;;;4993169;28;20192;-57
2022/04/22 08:21:57;;;;;;;9.23;8.40;;;;;;;;;;4994022;28;20177;-57
2022/04/22 08:24:23;;;;;;;8.10;7.33;;;;;;;;;;4998918;28;20201;-57
2022/04/22 08:26:49;;;;;;;8.73;7.93;;;;;;;;;;4993165;28;20199;-57
2022/04/22 08:29:15;;;;;;;8.60;7.60;;;;;;;;;;4989046;28;20204;-57
2022/04/22 08:31:41;;;;;;;8.77;7.87;;;;;;;;;;4993459;28;20229;-57
2022/04/22 08:34:07;;;;;;;8.43;7.53;;;;;;;;;;4994427;28;20201;-57
2022/04/22 08:36:33;;;;;;;7.10;6.40;;;;;;;;;;4996641;28;20203;-57
2022/04/22 08:38:59;;;;;;;7.38;6.75;;;;;;;;;;4998332;28;20189;-57
2022/04/22 08:41:26;;;;;;;7.65;6.85;;;;;;;;;;5001007;28;20193;-57
2022/04/22 08:43:52;;;;;;;6.75;6.05;;;;;;;;;;4995130;28;20247;-57
2022/04/22 08:51:48;;;;;;;7.30;6.70;;;;;;;;;;4991483;28;21567;-56
2022/04/22 08:54:14;;;;;;;6.45;5.85;;;;;;;;;;4988277;28;21559;-57
2022/04/22 08:56:40;;;;;;;6.80;6.20;;;;;;;;;;4997218;28;20587;-57
2022/04/22 08:59:06;;;;;;;6.75;6.15;;;;;;;;;;4991106;28;20520;-57
2022/04/22 09:01:32;;;;;;;5.93;5.32;;;;;;;;;;4991687;28;20272;-57
2022/04/22 09:03:58;;;;;;;6.25;5.70;;;;;;;;;;4994356;28;20566;-57
2022/04/22 09:06:25;;;;;;;7.70;7.00;;;;;;;;;;4986907;28;20210;-56
2022/04/22 09:08:51;;;;;;;7.05;6.30;;;;;;;;;;4991743;28;20185;-57
2022/04/22 09:11:17;;;;;;;6.70;6.07;;;;;;;;;;4988428;28;20194;-57
2022/04/22 09:13:43;;;;;;;8.13;5.03;;;;;;;;;;4993929;28;20192;-56
2022/04/22 09:16:09;;;;;;;6.13;4.97;;;;;;;;;;4998636;28;20198;-57
2022/04/22 09:18:37;;;;;;;8.60;5.60;;;;;;;;;;4989099;28;20471;-56
2022/04/22 09:21:06;;;;;;;6.65;4.97;;;;;;;;;;4998696;28;20189;-57
2022/04/22 09:23:36;;;;;;;6.40;5.80;;;;;;;;;;4991065;28;21138;-61
2022/04/22 09:26:03;;;;;;;6.10;5.50;;;;;;;;;;5005186;28;20197;-61
2022/04/22 09:28:28;;;;;;;8.87;6.27;;;;;;;;;;4997513;28;20193;-61
2022/04/22 09:30:58;;;;;;;10.50;9.50;;;;;;;;;;5001035;28;20248;-61
2022/04/22 09:33:24;;;;;;;10.97;9.87;;;;;;;;;;4993677;28;20800;-60
2022/04/22 09:44:24;;;;;;;8.60;7.07;;;;;;;;;;4994226;28;20192;-57
2022/04/22 09:46:50;;;;;;;8.27;6.20;;;;;;;;;;4999947;28;21115;-57
2022/04/22 09:49:36;;;;;;;7.37;5.90;;;;;;;;;;4991258;28;20710;-57
2022/04/22 09:52:08;;;;;;;6.97;6.37;;;;;;;;;;4988439;28;20197;-57
2022/04/22 09:54:34;;;;;;;6.33;5.83;;;;;;;;;;4991773;28;20193;-57
2022/04/22 09:57:03;;;;;;;6.83;6.13;;;;;;;;;;5002953;28;20256;-56
2022/04/22 09:59:30;;;;;;;6.67;5.83;;;;;;;;;;4997558;28;20185;-57
2022/04/22 10:01:56;;;;;;;8.38;6.05;;;;;;;;;;4989320;28;20196;-57
2022/04/22 10:04:22;;;;;;;6.30;5.72;;;;;;;;;;4988619;28;20189;-57
2022/04/22 10:06:49;;;;;;;6.80;5.70;;;;;;;;;;4979123;28;20807;-57
2022/04/22 10:09:15;;;;;;;7.30;6.07;;;;;;;;;;4994185;28;20201;-55
2022/04/22 10:11:41;;;;;;;8.40;5.68;;;;;;;;;;4997081;28;20181;-56
2022/04/22 10:14:10;;;;;;;6.65;5.13;;;;;;;;;;4987057;28;20196;-56
2022/04/22 10:16:36;;;;;;;5.97;5.38;;;;;;;;;;4993217;28;20216;-57
2022/04/22 10:19:03;;;;;;;5.97;5.47;;;;;;;;;;5001640;28;20192;-57
2022/04/22 10:21:29;;;;;;;6.10;5.60;;;;;;;;;;4996041;28;20196;-58
2022/04/22 10:23:58;;;;;;;6.63;5.90;;;;;;;;;;5000656;28;20190;-58
2022/04/22 10:26:25;;;;;;;6.40;5.80;;;;;;;;;;4988173;28;20217;-58
2022/04/22 10:28:52;;;;;;;9.10;7.78;;;;;;;;;;4999434;28;20339;-57
2022/04/22 10:31:18;;;;;;;6.95;6.25;;;;;;;;;;4994296;28;20229;-57
2022/04/22 10:33:44;;;;;;;7.85;7.05;;;;;;;;;;5004502;28;20553;-57
2022/04/22 10:36:17;;;;;;;6.60;6.00;;;;;;;;;;5002171;28;20194;-57
2022/04/22 10:38:45;;;;;;;9.77;5.80;;;;;;;;;;4998896;28;20224;-58
2022/04/22 10:41:16;;;;;;;6.50;5.75;;;;;;;;;;5004263;28;20607;-57
2022/04/22 10:43:42;;;;;;;5.55;5.03;;;;;;;;;;4991409;28;20280;-58
2022/04/22 10:49:09;;;;;;;5.90;4.88;;;;;;;;;;4997337;28;20224;-58
2022/04/22 10:51:58;;;;;;;8.90;6.65;;;;;;;;;;4995172;28;20184;-57
2022/04/22 10:54:43;;;;;;;6.20;5.60;;;;;;;;;;4988197;28;20225;-57
2022/04/22 10:57:18;;;;;;;5.43;5.00;;;;;;;;;;4995840;28;20217;-58
2022/04/22 10:59:45;;;;;;;6.18;5.68;;;;;;;;;;4994848;28;20235;-58
2022/04/22 11:02:27;;;;;;;5.25;4.80;;;;;;;;;;4998492;28;20721;-58
2022/04/22 11:05:13;;;;;;;5.75;5.13;;;;;;;;;;4988126;28;20193;-58
2022/04/22 11:07:55;;;;;;;6.10;4.90;;;;;;;;;;4990788;28;20212;-58
2022/04/22 11:10:22;;;;;;;8.05;7.07;;;;;;;;;;4984868;28;21250;-58
2022/04/22 11:12:54;;;;;;;5.85;4.68;;;;;;;;;;5000621;28;20248;-58
2022/04/22 11:15:39;;;;;;;6.15;5.65;;;;;;;;;;4994017;28;20392;-59
2022/04/22 11:18:05;;;;;;;6.43;5.82;;;;;;;;;;5002406;28;20338;-58
2022/04/22 11:20:31;;;;;;;6.03;5.20;;;;;;;;;;4990332;28;21513;-59
2022/04/22 11:22:58;;;;;;;6.90;4.95;;;;;;;;;;5000274;28;20662;-58
2022/04/22 11:25:27;;;;;;;5.47;4.95;;;;;;;;;;5005564;28;20575;-58
2022/04/22 11:27:56;;;;;;;5.82;5.30;;;;;;;;;;4999365;28;20281;-58
2022/04/22 11:30:22;;;;;;;29.05;6.72;;;;;;;;;;4998059;28;20275;-58
2022/04/22 11:32:49;;;;;;;5.68;5.18;;;;;;;;;;4991268;28;20189;-59
2022/04/22 11:35:21;;;;;;;13.48;5.55;;;;;;;;;;5001626;28;20216;-58
2022/04/22 11:38:00;;;;;;;6.95;4.75;;;;;;;;;;4991923;28;20609;-58
2022/04/22 11:40:26;;;;;;;5.57;4.70;;;;;;;;;;4996333;28;20181;-59
2022/04/22 11:42:54;;;;;;;12.43;5.45;;;;;;;;;;4989951;28;20620;-58
2022/04/22 11:45:20;;;;;;;9.95;4.90;;;;;;;;;;4983491;28;20280;-57
2022/04/22 11:47:46;;;;;;;6.43;5.75;;;;;;;;;;4985434;28;20239;-58
2022/04/22 11:50:19;;;;;;;6.88;5.18;;;;;;;;;;4991010;28;20639;-58
2022/04/22 11:52:45;;;;;;;7.80;4.97;;;;;;;;;;4999546;28;20189;-57
2022/04/22 11:55:12;;;;;;;6.85;4.30;;;;;;;;;;4985254;28;20785;-58
2022/04/22 11:57:39;;;;;;;5.38;4.88;;;;;;;;;;4999188;28;20215;-57
2022/04/22 12:05:44;;;;;;;7.22;4.18;;;;;;;;;;4991738;28;20223;-57
2022/04/22 12:08:13;;;;;;;8.02;4.10;;;;;;;;;;4980041;28;20249;-56
2022/04/22 12:10:39;;;;;;;4.25;3.80;;;;;;;;;;4986682;28;20185;-57
2022/04/22 12:13:06;;;;;;;4.50;4.10;;;;;;;;;;4997134;28;20828;-57
2022/04/22 12:15:32;;;;;;;9.27;4.40;;;;;;;;;;4991794;28;20193;-58
2022/04/22 12:17:58;;;;;;;7.15;4.20;;;;;;;;;;4973658;28;20236;-62
2022/04/22 12:20:25;;;;;;;5.47;4.38;;;;;;;;;;4990982;28;20424;-58
2022/04/22 12:22:53;;;;;;;4.38;3.97;;;;;;;;;;4986087;28;20698;-58
2022/04/22 12:25:19;;;;;;;4.70;3.70;;;;;;;;;;4986279;28;20185;-57
2022/04/22 12:28:04;;;;;;;4.68;4.28;;;;;;;;;;4968016;28;20632;-58
2022/04/22 12:30:34;;;;;;;4.70;3.53;;;;;;;;;;4974128;28;20311;-58
2022/04/22 12:33:00;;;;;;;4.47;3.55;;;;;;;;;;4982016;28;20213;-58
2022/04/22 12:35:26;;;;;;;4.25;3.83;;;;;;;;;;4979067;28;20197;-57
2022/04/22 12:37:53;;;;;;;5.15;3.75;;;;;;;;;;4982220;28;20216;-58
2022/04/22 12:40:19;;;;;;;4.38;3.97;;;;;;;;;;4991896;28;20200;-59
2022/04/22 12:42:45;;;;;;;5.97;3.80;;;;;;;;;;4991813;28;20180;-58
2022/04/22 12:54:04;;;;;;;8.63;3.53;;;;;;;;;;4994748;28;20189;-58
2022/04/22 12:56:30;;;;;;;8.38;4.05;;;;;;;;;;4994760;28;20874;-57
2022/04/22 12:58:58;;;;;;;3.85;3.53;;;;;;;;;;4988808;28;20324;-58
2022/04/22 13:01:28;;;;;;;6.07;3.83;;;;;;;;;;4996729;28;20238;-59
2022/04/22 13:03:54;;;;;;;3.92;3.63;;;;;;;;;;4980538;28;20347;-57
2022/04/22 13:06:53;;;;;;;4.07;3.78;;;;;;;;;;4988322;28;20256;-58
2022/04/22 13:09:20;;;;;;;4.55;3.55;;;;;;;;;;4977685;28;20252;-58
2022/04/22 13:11:46;;;;;;;3.90;3.60;;;;;;;;;;4991786;28;20202;-58
2022/04/22 13:14:12;;;;;;;3.78;3.47;;;;;;;;;;4987693;28;20235;-58
2022/04/22 13:16:38;;;;;;;4.30;3.72;;;;;;;;;;4999644;28;20642;-58
2022/04/22 13:19:04;;;;;;;4.70;3.65;;;;;;;;;;4982943;28;21114;-58
2022/04/22 13:21:30;;;;;;;4.40;4.00;;;;;;;;;;4979013;28;20190;-58
2022/04/22 13:23:56;;;;;;;4.18;3.88;;;;;;;;;;4988469;28;21097;-57
2022/04/22 13:26:22;;;;;;;3.80;3.50;;;;;;;;;;4977407;28;20181;-58
2022/04/22 13:28:48;;;;;;;4.85;4.10;;;;;;;;;;4996570;28;20727;-59
2022/04/22 13:31:15;;;;;;;5.38;3.70;;;;;;;;;;4991652;28;20232;-58
2022/04/22 13:33:41;;;;;;;4.35;3.95;;;;;;;;;;5000522;28;20193;-58
2022/04/22 13:36:11;;;;;;;4.50;4.10;;;;;;;;;;4986113;28;20195;-58
2022/04/22 13:38:37;;;;;;;4.75;4.00;;;;;;;;;;4982475;28;20874;-57
2022/04/22 13:41:05;;;;;;;4.35;3.92;;;;;;;;;;4992252;28;20231;-58
2022/04/22 13:43:31;;;;;;;4.45;4.00;;;;;;;;;;4993554;28;20634;-58
2022/04/22 13:54:12;;;;;;;20.00;5.28;;;;;;;;;;4977984;28;20975;-58
2022/04/22 13:56:38;;;;;;;17.23;5.00;;;;;;;;;;4979174;28;20201;-58
2022/04/22 13:59:04;;;;;;;6.38;4.35;;;;;;;;;;4982670;28;20694;-58
2022/04/22 14:01:29;;;;;;;8.07;4.35;;;;;;;;;;4995169;28;20270;-58
2022/04/22 14:03:55;;;;;;;10.32;4.15;;;;;;;;;;4986476;28;20193;-58
2022/04/22 14:06:21;;;;;;;6.47;4.25;;;;;;;;;;4998528;28;20208;-59
2022/04/22 14:08:48;;;;;;;7.05;4.18;;;;;;;;;;4996481;28;20201;-57
2022/04/22 14:11:14;;;;;;;5.40;4.15;;;;;;;;;;4993727;28;20189;-58
2022/04/22 14:13:40;;;;;;;6.60;3.90;;;;;;;;;;4996259;28;20185;-57
2022/04/22 14:16:06;;;;;;;5.35;4.20;;;;;;;;;;4990293;28;20190;-58
2022/04/22 14:18:34;;;;;;;10.10;4.20;;;;;;;;;;4996318;28;20305;-57
2022/04/22 14:21:00;;;;;;;23.48;17.13;;;;;;;;;;5005303;28;20189;-59
2022/04/22 14:23:26;;;;;;;19.08;16.48;;;;;;;;;;4994054;28;20251;-58
2022/04/22 14:25:56;;;;;;;19.67;17.65;;;;;;;;;;5004457;28;20188;-59
2022/04/22 14:28:24;;;;;;;14.75;13.25;;;;;;;;;;5020640;28;20181;-59
2022/04/22 14:31:01;;;;;;;16.25;11.32;;;;;;;;;;5015060;28;20312;-57
2022/04/22 14:33:27;;;;;;;15.35;12.45;;;;;;;;;;4994622;28;20205;-58
2022/04/22 14:35:53;;;;;;;11.75;10.65;;;;;;;;;;5002360;28;20190;-59
2022/04/22 14:38:19;;;;;;;11.75;9.75;;;;;;;;;;5000761;28;20232;-59
2022/04/22 14:40:45;;;;;;;12.45;9.40;;;;;;;;;;5003933;28;20551;-59
2022/04/22 14:43:11;;;;;;;10.75;9.73;;;;;;;;;;4999875;28;20521;-58
2022/04/22 14:45:37;;;;;;;10.65;9.30;;;;;;;;;;5003530;28;20464;-59
2022/04/22 14:48:03;;;;;;;11.05;8.20;;;;;;;;;;5006025;28;20224;-59
2022/04/22 14:50:31;;;;;;;7.50;6.45;;;;;;;;;;4998291;28;20193;-57
2022/04/22 14:52:57;;;;;;;7.88;5.88;;;;;;;;;;5001666;28;21175;-59
2022/04/22 14:55:23;;;;;;;9.93;5.78;;;;;;;;;;4999507;28;20193;-58
2022/04/22 14:57:49;;;;;;;7.60;5.63;;;;;;;;;;5002489;28;20228;-58
2022/04/22 15:00:15;;;;;;;8.35;5.50;;;;;;;;;;5001764;28;20185;-59
2022/04/22 15:02:41;;;;;;;7.38;4.57;;;;;;;;;;5002302;28;21125;-58
2022/04/22 15:05:07;;;;;;;6.78;4.60;;;;;;;;;;4997957;28;20200;-58
2022/04/22 15:07:33;;;;;;;5.47;4.35;;;;;;;;;;5002417;28;20208;-58
2022/04/22 15:09:59;;;;;;;5.30;4.80;;;;;;;;;;4998021;28;20413;-58
2022/04/22 15:12:27;;;;;;;5.47;4.57;;;;;;;;;;5004450;28;20251;-58
2022/04/22 15:14:53;;;;;;;4.80;4.30;;;;;;;;;;5004901;28;20228;-59
2022/04/22 15:25:35;;;;;;;6.43;4.72;;;;;;;;;;5002765;28;20272;-58
2022/04/22 15:28:01;;;;;;;8.35;4.47;;;;;;;;;;4987717;28;20653;-58
2022/04/22 15:30:47;;;;;;;9.07;4.60;;;;;;;;;;4997426;28;20709;-59
2022/04/22 15:33:13;;;;;;;5.30;4.25;;;;;;;;;;4986677;28;20208;-58
2022/04/22 15:35:38;;;;;;;4.63;4.13;;;;;;;;;;5002164;28;20224;-59
2022/04/22 15:38:04;;;;;;;8.57;4.25;;;;;;;;;;4986654;28;20683;-58
2022/04/22 15:40:30;;;;;;;4.40;3.97;;;;;;;;;;4988919;28;21971;-58
2022/04/22 15:42:58;;;;;;;4.47;4.07;;;;;;;;;;4994991;28;20276;-59
2022/04/22 15:45:24;;;;;;;4.53;3.78;;;;;;;;;;4986536;28;20691;-58
2022/04/22 15:47:50;;;;;;;5.07;3.90;;;;;;;;;;4993254;28;20202;-58
2022/04/22 15:50:16;;;;;;;7.78;4.03;;;;;;;;;;4988508;28;20204;-59
2022/04/22 15:52:42;;;;;;;6.55;4.80;;;;;;;;;;4997964;28;20197;-59
2022/04/22 15:55:08;;;;;;;4.70;4.10;;;;;;;;;;4989245;28;20190;-58
2022/04/22 15:57:35;;;;;;;8.10;4.47;;;;;;;;;;4992955;28;20213;-59
2022/04/22 16:00:00;;;;;;;9.48;6.95;;;;;;;;;;5001178;28;20562;-57
2022/04/22 16:02:27;;;;;;;15.27;7.10;;;;;;;;;;5004636;28;20189;-58
2022/04/22 16:04:53;;;;;;;6.55;5.10;;;;;;;;;;4995923;28;20230;-58
2022/04/22 16:07:19;;;;;;;5.38;4.88;;;;;;;;;;4998300;28;20237;-57
2022/04/22 16:09:45;;;;;;;6.45;5.47;;;;;;;;;;5008287;28;20193;-59